createdAt,value
2022-12-24T19:25:44.436Z,98733.53
2022-12-24T19:28:25.615Z,98782.50
2022-12-24T19:30:56.884Z,98781.38
2022-12-24T19:33:27.336Z,98780.59
2022-12-24T19:36:05.147Z,98798.75
2022-12-24T19:38:36.186Z,98818.78
2022-12-24T19:41:23.292Z,98812.19
2022-12-24T19:43:55.119Z,98809.97
2022-12-24T19:46:31.729Z,98812.22
2022-12-24T19:49:10.017Z,98810.28
2022-12-24T19:51:40.763Z,98813.28
2022-12-24T19:54:18.599Z,98813.59
2022-12-24T19:56:50.864Z,98799.84
2022-12-24T19:59:21.953Z,98803.69
2022-12-24T20:01:50.610Z,98809.97
2022-12-24T20:04:25.391Z,98810.53
2022-12-24T20:07:00.145Z,98813.56
2022-12-24T20:09:34.368Z,98833.34
2022-12-24T20:12:02.545Z,98815.69
2022-12-24T20:14:34.037Z,98832.19
2022-12-24T20:17:09.149Z,98825.06
2022-12-24T20:19:38.162Z,98849.00
2022-12-24T20:22:12.852Z,98850.59
2022-12-24T20:24:43.744Z,98853.63
2022-12-24T20:27:35.411Z,98860.25
2022-12-24T20:30:09.349Z,98858.28
2022-12-24T20:35:31.168Z,98867.41
2022-12-24T20:38:16.207Z,98869.34
2022-12-24T20:40:47.298Z,98857.75
2022-12-24T20:43:22.400Z,98854.44
2022-12-24T20:46:07.893Z,98858.56
2022-12-24T20:48:37.072Z,98875.88
2022-12-24T20:51:20.931Z,98873.97
2022-12-24T20:54:04.516Z,98882.41
2022-12-24T20:56:33.441Z,98874.50
2022-12-24T20:59:10.883Z,98878.34
2022-12-24T21:01:40.650Z,98874.81
2022-12-24T21:04:11.707Z,98874.25
2022-12-24T21:06:41.098Z,98869.53
2022-12-24T21:09:11.974Z,98862.97
2022-12-24T21:12:02.134Z,98866.44
